sensor_id;sensor_type;location;lat;lon;timestamp;P1;durP1;ratioP1;P2;durP2;ratioP2
2001;SDS011;1003;48.002;7.788;2022-10-16T00:01:15;3.57;;;1.40;;
2001;SDS011;1003;48.002;7.788;2022-10-16T00:03:47;3.63;;;1.40;;
2001;SDS011;1003;48.002;7.788;2022-10-16T00:06:16;2.03;;;1.50;;
2001;SDS011;1003;48.002;7.788;2022-10-16T00:08:46;2.60;;;1.40;;
2001;SDS011;1003;48.002;7.788;2022-10-16T00:11:15;1.40;;;1.30;;
2001;SDS011;1003;48.002;7.788;2022-10-16T00:13:45;3.53;;;1.33;;
2001;SDS011;1003;48.002;7.788;2022-10-16T00:16:14;2.90;;;1.43;;
2001;SDS011;1003;48.002;7.788;2022-10-16T00:18:43;2.90;;;1.70;;
2001;SDS011;1003;48.002;7.788;2022-10-16T00:21:12;2.10;;;1.40;;
2001;SDS011;1003;48.002;7.788;2022-10-16T00:23:42;1.40;;;1.30;;
2001;SDS011;1003;48.002;7.788;2022-10-16T00:26:12;4.53;;;1.20;;
2001;SDS011;1003;48.002;7.788;2022-10-16T00:28:44;1.20;;;1.10;;
2001;SDS011;1003;48.002;7.788;2022-10-16T00:31:12;1.63;;;1.47;;
2001;SDS011;1003;48.002;7.788;2022-10-16T00:33:40;1.67;;;1.43;;
2001;SDS011;1003;48.002;7.788;2022-10-16T00:36:09;1.53;;;1.43;;
2001;SDS011;1003;48.002;7.788;2022-10-16T00:38:41;1.30;;;1.20;;
2001;SDS011;1003;48.002;7.788;2022-10-16T00:41:09;2.40;;;1.70;;
2001;SDS011;1003;48.002;7.788;2022-10-16T00:43:41;1.53;;;1.40;;
2001;SDS011;1003;48.002;7.788;2022-10-16T00:46:13;3.90;;;1.70;;
2001;SDS011;1003;48.002;7.788;2022-10-16T00:48:46;1.53;;;1.43;;
2001;SDS011;1003;48.002;7.788;2022-10-16T00:51:21;1.80;;;1.67;;
2001;SDS011;1003;48.002;7.788;2022-10-16T00:53:54;2.93;;;1.30;;
2001;SDS011;1003;48.002;7.788;2022-10-16T00:56:22;4.40;;;1.70;;
2001;SDS011;1003;48.002;7.788;2022-10-16T00:58:49;3.03;;;1.50;;
2001;SDS011;1003;48.002;7.788;2022-10-16T01:01:17;2.87;;;1.53;;
2001;SDS011;1003;48.002;7.788;2022-10-16T01:03:44;4.43;;;1.80;;
2001;SDS011;1003;48.002;7.788;2022-10-16T01:06:18;2.23;;;1.70;;
2001;SDS011;1003;48.002;7.788;2022-10-16T01:08:58;1.60;;;1.40;;
2001;SDS011;1003;48.002;7.788;2022-10-16T01:11:43;5.93;;;1.63;;
2001;SDS011;1003;48.002;7.788;2022-10-16T01:14:22;3.17;;;1.43;;
2001;SDS011;1003;48.002;7.788;2022-10-16T01:16:58;2.63;;;1.20;;
2001;SDS011;1003;48.002;7.788;2022-10-16T01:19:40;2.87;;;1.40;;
2001;SDS011;1003;48.002;7.788;2022-10-16T01:22:33;2.40;;;1.30;;
2001;SDS011;1003;48.002;7.788;2022-10-16T01:25:16;2.73;;;1.37;;
2001;SDS011;1003;48.002;7.788;2022-10-16T01:27:58;2.37;;;1.80;;
2001;SDS011;1003;48.002;7.788;2022-10-16T01:30:29;1.60;;;1.30;;
2001;SDS011;1003;48.002;7.788;2022-10-16T01:33:01;1.47;;;1.20;;
2001;SDS011;1003;48.002;7.788;2022-10-16T01:35:36;1.80;;;1.47;;
2001;SDS011;1003;48.002;7.788;2022-10-16T01:38:10;1.40;;;1.30;;
2001;SDS011;1003;48.002;7.788;2022-10-16T01:40:46;2.53;;;1.97;;
2001;SDS011;1003;48.002;7.788;2022-10-16T01:43:20;4.97;;;2.07;;
2001;SDS011;1003;48.002;7.788;2022-10-16T01:45:54;2.20;;;1.80;;
2001;SDS011;1003;48.002;7.788;2022-10-16T01:48:23;2.30;;;2.10;;
2001;SDS011;1003;48.002;7.788;2022-10-16T01:50:52;2.97;;;2.10;;
2001;SDS011;1003;48.002;7.788;2022-10-16T01:53:25;2.00;;;1.80;;
2001;SDS011;1003;48.002;7.788;2022-10-16T01:55:54;4.57;;;2.10;;
2001;SDS011;1003;48.002;7.788;2022-10-16T01:58:26;3.03;;;1.87;;
2001;SDS011;1003;48.002;7.788;2022-10-16T02:00:59;3.23;;;1.90;;
2001;SDS011;1003;48.002;7.788;2022-10-16T02:03:30;4.20;;;2.30;;
2001;SDS011;1003;48.002;7.788;2022-10-16T02:06:00;2.80;;;2.10;;
2001;SDS011;1003;48.002;7.788;2022-10-16T02:08:27;2.53;;;2.00;;
2001;SDS011;1003;48.002;7.788;2022-10-16T02:10:56;3.00;;;2.17;;
2001;SDS011;1003;48.002;7.788;2022-10-16T02:13:29;2.63;;;1.77;;
2001;SDS011;1003;48.002;7.788;2022-10-16T02:16:03;2.03;;;1.67;;
2001;SDS011;1003;48.002;7.788;2022-10-16T02:18:31;2.10;;;1.90;;
2001;SDS011;1003;48.002;7.788;2022-10-16T02:20:59;4.27;;;1.90;;
2001;SDS011;1003;48.002;7.788;2022-10-16T02:23:35;5.70;;;2.10;;
2001;SDS011;1003;48.002;7.788;2022-10-16T02:26:27;3.33;;;2.10;;
2001;SDS011;1003;48.002;7.788;2022-10-16T02:29:04;3.70;;;2.20;;
2001;SDS011;1003;48.002;7.788;2022-10-16T02:31:39;2.13;;;1.80;;
2001;SDS011;1003;48.002;7.788;2022-10-16T02:34:12;2.97;;;2.53;;
2001;SDS011;1003;48.002;7.788;2022-10-16T02:36:42;3.77;;;2.07;;
2001;SDS011;1003;48.002;7.788;2022-10-16T02:39:12;3.20;;;1.93;;
2001;SDS011;1003;48.002;7.788;2022-10-16T02:41:41;1.80;;;1.60;;
2001;SDS011;1003;48.002;7.788;2022-10-16T02:44:10;3.83;;;1.90;;
2001;SDS011;1003;48.002;7.788;2022-10-16T02:46:37;3.87;;;2.13;;
2001;SDS011;1003;48.002;7.788;2022-10-16T02:49:04;2.23;;;1.80;;
2001;SDS011;1003;48.002;7.788;2022-10-16T02:51:31;4.87;;;2.23;;
2001;SDS011;1003;48.002;7.788;2022-10-16T02:53:58;3.43;;;1.90;;
2001;SDS011;1003;48.002;7.788;2022-10-16T02:56:25;4.53;;;2.40;;
2001;SDS011;1003;48.002;7.788;2022-10-16T02:58:52;6.73;;;2.30;;
2001;SDS011;1003;48.002;7.788;2022-10-16T03:01:21;3.63;;;1.90;;
2001;SDS011;1003;48.002;7.788;2022-10-16T03:03:48;2.50;;;1.90;;
2001;SDS011;1003;48.002;7.788;2022-10-16T03:06:15;4.57;;;1.97;;
2001;SDS011;1003;48.002;7.788;2022-10-16T03:08:42;4.20;;;1.77;;
2001;SDS011;1003;48.002;7.788;2022-10-16T03:11:10;1.90;;;1.60;;
2001;SDS011;1003;48.002;7.788;2022-10-16T03:13:36;3.77;;;1.90;;
2001;SDS011;1003;48.002;7.788;2022-10-16T03:16:03;4.53;;;2.10;;
2001;SDS011;1003;48.002;7.788;2022-10-16T03:18:32;2.80;;;1.80;;
2001;SDS011;1003;48.002;7.788;2022-10-16T03:20:59;5.87;;;2.37;;
2001;SDS011;1003;48.002;7.788;2022-10-16T03:23:26;4.10;;;2.13;;
2001;SDS011;1003;48.002;7.788;2022-10-16T03:25:53;3.00;;;2.00;;
2001;SDS011;1003;48.002;7.788;2022-10-16T03:28:21;2.60;;;2.00;;
2001;SDS011;1003;48.002;7.788;2022-10-16T03:30:48;3.20;;;2.10;;
2001;SDS011;1003;48.002;7.788;2022-10-16T03:33:15;3.33;;;1.90;;
2001;SDS011;1003;48.002;7.788;2022-10-16T03:35:43;2.13;;;1.90;;
2001;SDS011;1003;48.002;7.788;2022-10-16T03:38:18;2.67;;;1.90;;
2001;SDS011;1003;48.002;7.788;2022-10-16T03:40:46;2.90;;;2.13;;
2001;SDS011;1003;48.002;7.788;2022-10-16T03:43:14;3.03;;;1.90;;
2001;SDS011;1003;48.002;7.788;2022-10-16T03:45:41;2.87;;;2.03;;
2001;SDS011;1003;48.002;7.788;2022-10-16T03:48:09;4.57;;;2.17;;
2001;SDS011;1003;48.002;7.788;2022-10-16T03:50:36;3.73;;;2.00;;
2001;SDS011;1003;48.002;7.788;2022-10-16T03:53:04;1.87;;;1.77;;
2001;SDS011;1003;48.002;7.788;2022-10-16T03:55:32;2.17;;;1.90;;
2001;SDS011;1003;48.002;7.788;2022-10-16T03:57:59;4.27;;;2.47;;
2001;SDS011;1003;48.002;7.788;2022-10-16T04:00:26;5.47;;;2.70;;
2001;SDS011;1003;48.002;7.788;2022-10-16T04:02:53;5.67;;;2.70;;
2001;SDS011;1003;48.002;7.788;2022-10-16T04:05:20;3.40;;;2.27;;
2001;SDS011;1003;48.002;7.788;2022-10-16T04:07:47;3.57;;;2.40;;
2001;SDS011;1003;48.002;7.788;2022-10-16T04:10:15;4.13;;;1.87;;
2001;SDS011;1003;48.002;7.788;2022-10-16T04:12:42;3.00;;;2.30;;
2001;SDS011;1003;48.002;7.788;2022-10-16T04:15:10;3.17;;;2.13;;
2001;SDS011;1003;48.002;7.788;2022-10-16T04:17:37;3.17;;;2.10;;
2001;SDS011;1003;48.002;7.788;2022-10-16T04:20:04;3.90;;;2.50;;
2001;SDS011;1003;48.002;7.788;2022-10-16T04:22:32;3.17;;;2.23;;
2001;SDS011;1003;48.002;7.788;2022-10-16T04:24:59;3.70;;;2.33;;
2001;SDS011;1003;48.002;7.788;2022-10-16T04:27:28;3.10;;;2.20;;
2001;SDS011;1003;48.002;7.788;2022-10-16T04:29:56;2.70;;;2.00;;
2001;SDS011;1003;48.002;7.788;2022-10-16T04:32:23;1.67;;;1.57;;
2001;SDS011;1003;48.002;7.788;2022-10-16T04:34:51;2.20;;;1.77;;
2001;SDS011;1003;48.002;7.788;2022-10-16T04:37:18;3.80;;;1.80;;
2001;SDS011;1003;48.002;7.788;2022-10-16T04:39:49;2.53;;;1.50;;
2001;SDS011;1003;48.002;7.788;2022-10-16T04:42:16;4.10;;;1.90;;
2001;SDS011;1003;48.002;7.788;2022-10-16T04:44:44;2.43;;;1.80;;
2001;SDS011;1003;48.002;7.788;2022-10-16T04:47:11;2.37;;;2.00;;
2001;SDS011;1003;48.002;7.788;2022-10-16T04:49:39;1.97;;;1.70;;
2001;SDS011;1003;48.002;7.788;2022-10-16T04:52:06;2.20;;;1.50;;
2001;SDS011;1003;48.002;7.788;2022-10-16T04:54:34;2.87;;;1.97;;
2001;SDS011;1003;48.002;7.788;2022-10-16T04:57:01;2.70;;;1.63;;
2001;SDS011;1003;48.002;7.788;2022-10-16T04:59:29;2.37;;;1.60;;
2001;SDS011;1003;48.002;7.788;2022-10-16T05:01:58;1.90;;;1.63;;
2001;SDS011;1003;48.002;7.788;2022-10-16T05:04:25;4.97;;;1.90;;
2001;SDS011;1003;48.002;7.788;2022-10-16T05:06:52;7.53;;;2.30;;
2001;SDS011;1003;48.002;7.788;2022-10-16T05:09:19;3.20;;;1.73;;
2001;SDS011;1003;48.002;7.788;2022-10-16T05:11:46;2.97;;;1.90;;
2001;SDS011;1003;48.002;7.788;2022-10-16T05:14:13;3.00;;;1.97;;
2001;SDS011;1003;48.002;7.788;2022-10-16T05:16:40;4.67;;;2.30;;
2001;SDS011;1003;48.002;7.788;2022-10-16T05:19:09;4.30;;;1.80;;
2001;SDS011;1003;48.002;7.788;2022-10-16T05:21:36;2.57;;;1.60;;
2001;SDS011;1003;48.002;7.788;2022-10-16T05:24:03;5.07;;;1.90;;
2001;SDS011;1003;48.002;7.788;2022-10-16T05:26:30;9.40;;;2.43;;
2001;SDS011;1003;48.002;7.788;2022-10-16T05:28:57;3.67;;;1.90;;
2001;SDS011;1003;48.002;7.788;2022-10-16T05:31:24;2.17;;;1.80;;
2001;SDS011;1003;48.002;7.788;2022-10-16T05:33:51;3.40;;;1.80;;
2001;SDS011;1003;48.002;7.788;2022-10-16T05:36:25;2.63;;;1.67;;
2001;SDS011;1003;48.002;7.788;2022-10-16T05:38:52;3.73;;;1.83;;
2001;SDS011;1003;48.002;7.788;2022-10-16T05:41:19;4.23;;;2.00;;
2001;SDS011;1003;48.002;7.788;2022-10-16T05:43:48;2.60;;;1.90;;
2001;SDS011;1003;48.002;7.788;2022-10-16T05:46:15;2.90;;;2.10;;
2001;SDS011;1003;48.002;7.788;2022-10-16T05:48:43;3.07;;;1.90;;
2001;SDS011;1003;48.002;7.788;2022-10-16T05:51:10;1.80;;;1.60;;
2001;SDS011;1003;48.002;7.788;2022-10-16T05:53:41;1.80;;;1.50;;
2001;SDS011;1003;48.002;7.788;2022-10-16T05:56:09;2.00;;;1.80;;
2001;SDS011;1003;48.002;7.788;2022-10-16T05:58:37;2.83;;;1.60;;
2001;SDS011;1003;48.002;7.788;2022-10-16T06:01:06;1.80;;;1.70;;
2001;SDS011;1003;48.002;7.788;2022-10-16T06:03:37;2.17;;;1.80;;
2001;SDS011;1003;48.002;7.788;2022-10-16T06:06:08;1.70;;;1.60;;
2001;SDS011;1003;48.002;7.788;2022-10-16T06:08:36;2.87;;;1.87;;
2001;SDS011;1003;48.002;7.788;2022-10-16T06:11:07;2.23;;;2.00;;
2001;SDS011;1003;48.002;7.788;2022-10-16T06:13:37;2.47;;;1.80;;
2001;SDS011;1003;48.002;7.788;2022-10-16T06:16:07;5.20;;;2.37;;
2001;SDS011;1003;48.002;7.788;2022-10-16T06:18:35;2.80;;;2.40;;
2001;SDS011;1003;48.002;7.788;2022-10-16T06:21:06;3.60;;;2.40;;
2001;SDS011;1003;48.002;7.788;2022-10-16T06:23:35;4.80;;;2.30;;
2001;SDS011;1003;48.002;7.788;2022-10-16T06:26:07;5.17;;;2.00;;
2001;SDS011;1003;48.002;7.788;2022-10-16T06:28:36;5.93;;;2.00;;
2001;SDS011;1003;48.002;7.788;2022-10-16T06:31:05;3.20;;;1.70;;
2001;SDS011;1003;48.002;7.788;2022-10-16T06:33:33;3.23;;;1.70;;
2001;SDS011;1003;48.002;7.788;2022-10-16T06:36:01;4.40;;;1.67;;
2001;SDS011;1003;48.002;7.788;2022-10-16T06:38:30;4.63;;;1.70;;
2001;SDS011;1003;48.002;7.788;2022-10-16T06:40:58;7.70;;;1.73;;
2001;SDS011;1003;48.002;7.788;2022-10-16T06:43:27;3.13;;;1.50;;
2001;SDS011;1003;48.002;7.788;2022-10-16T06:45:57;2.60;;;1.60;;
2001;SDS011;1003;48.002;7.788;2022-10-16T06:48:26;4.07;;;2.03;;
2001;SDS011;1003;48.002;7.788;2022-10-16T06:50:55;2.67;;;2.00;;
2001;SDS011;1003;48.002;7.788;2022-10-16T06:53:23;3.93;;;2.17;;
2001;SDS011;1003;48.002;7.788;2022-10-16T06:55:51;4.40;;;2.00;;
2001;SDS011;1003;48.002;7.788;2022-10-16T06:58:19;3.57;;;2.00;;
2001;SDS011;1003;48.002;7.788;2022-10-16T07:00:47;6.80;;;2.20;;
2001;SDS011;1003;48.002;7.788;2022-10-16T07:03:15;3.67;;;2.03;;
2001;SDS011;1003;48.002;7.788;2022-10-16T07:05:42;4.50;;;2.00;;
2001;SDS011;1003;48.002;7.788;2022-10-16T07:08:10;4.33;;;1.90;;
2001;SDS011;1003;48.002;7.788;2022-10-16T07:10:37;2.70;;;1.70;;
2001;SDS011;1003;48.002;7.788;2022-10-16T07:13:04;5.80;;;2.00;;
2001;SDS011;1003;48.002;7.788;2022-10-16T07:15:32;3.13;;;2.10;;
2001;SDS011;1003;48.002;7.788;2022-10-16T07:18:02;3.77;;;1.80;;
2001;SDS011;1003;48.002;7.788;2022-10-16T07:20:29;1.83;;;1.60;;
2001;SDS011;1003;48.002;7.788;2022-10-16T07:22:56;3.83;;;2.17;;
2001;SDS011;1003;48.002;7.788;2022-10-16T07:25:23;3.47;;;2.00;;
2001;SDS011;1003;48.002;7.788;2022-10-16T07:27:50;2.33;;;1.90;;
2001;SDS011;1003;48.002;7.788;2022-10-16T07:30:17;4.87;;;1.97;;
2001;SDS011;1003;48.002;7.788;2022-10-16T07:32:44;2.07;;;1.70;;
2001;SDS011;1003;48.002;7.788;2022-10-16T07:35:12;2.57;;;1.80;;
2001;SDS011;1003;48.002;7.788;2022-10-16T07:37:39;3.70;;;1.80;;
2001;SDS011;1003;48.002;7.788;2022-10-16T07:40:11;2.03;;;1.83;;
2001;SDS011;1003;48.002;7.788;2022-10-16T07:42:39;2.70;;;1.70;;
2001;SDS011;1003;48.002;7.788;2022-10-16T07:45:06;2.13;;;1.80;;
2001;SDS011;1003;48.002;7.788;2022-10-16T07:47:34;6.90;;;2.03;;
2001;SDS011;1003;48.002;7.788;2022-10-16T07:50:01;2.13;;;1.70;;
2001;SDS011;1003;48.002;7.788;2022-10-16T07:52:30;3.27;;;1.67;;
2001;SDS011;1003;48.002;7.788;2022-10-16T07:54:57;2.03;;;1.83;;
2001;SDS011;1003;48.002;7.788;2022-10-16T07:57:24;3.97;;;1.90;;
2001;SDS011;1003;48.002;7.788;2022-10-16T07:59:51;4.23;;;2.37;;
2001;SDS011;1003;48.002;7.788;2022-10-16T08:02:18;2.90;;;2.10;;
2001;SDS011;1003;48.002;7.788;2022-10-16T08:04:46;2.27;;;2.07;;
2001;SDS011;1003;48.002;7.788;2022-10-16T08:07:13;5.13;;;2.80;;
2001;SDS011;1003;48.002;7.788;2022-10-16T08:09:41;2.63;;;2.30;;
2001;SDS011;1003;48.002;7.788;2022-10-16T08:12:08;2.30;;;2.10;;
2001;SDS011;1003;48.002;7.788;2022-10-16T08:14:36;7.07;;;1.93;;
2001;SDS011;1003;48.002;7.788;2022-10-16T08:17:03;3.37;;;1.87;;
2001;SDS011;1003;48.002;7.788;2022-10-16T08:19:30;2.13;;;1.77;;
2001;SDS011;1003;48.002;7.788;2022-10-16T08:21:59;1.70;;;1.60;;
2001;SDS011;1003;48.002;7.788;2022-10-16T08:24:26;1.93;;;1.80;;
2001;SDS011;1003;48.002;7.788;2022-10-16T08:26:57;2.00;;;1.80;;
2001;SDS011;1003;48.002;7.788;2022-10-16T08:29:24;2.40;;;1.83;;
2001;SDS011;1003;48.002;7.788;2022-10-16T08:31:51;1.53;;;1.43;;
2001;SDS011;1003;48.002;7.788;2022-10-16T08:34:18;2.50;;;1.73;;
2001;SDS011;1003;48.002;7.788;2022-10-16T08:36:45;1.70;;;1.60;;
2001;SDS011;1003;48.002;7.788;2022-10-16T08:39:12;1.40;;;1.30;;
2001;SDS011;1003;48.002;7.788;2022-10-16T08:42:06;1.70;;;1.57;;
2001;SDS011;1003;48.002;7.788;2022-10-16T08:48:10;2.23;;;1.70;;
2001;SDS011;1003;48.002;7.788;2022-10-16T08:50:48;1.57;;;1.30;;
2001;SDS011;1003;48.002;7.788;2022-10-16T08:53:19;2.63;;;1.80;;
2001;SDS011;1003;48.002;7.788;2022-10-16T08:55:53;2.40;;;1.70;;
2001;SDS011;1003;48.002;7.788;2022-10-16T08:58:22;1.53;;;1.43;;
2001;SDS011;1003;48.002;7.788;2022-10-16T09:00:55;1.43;;;1.33;;
2001;SDS011;1003;48.002;7.788;2022-10-16T09:03:39;1.73;;;1.40;;
2001;SDS011;1003;48.002;7.788;2022-10-16T09:06:24;1.70;;;1.60;;
2001;SDS011;1003;48.002;7.788;2022-10-16T09:09:20;1.53;;;1.40;;
2001;SDS011;1003;48.002;7.788;2022-10-16T09:12:18;1.80;;;1.70;;
2001;SDS011;1003;48.002;7.788;2022-10-16T09:14:52;2.67;;;1.80;;
2001;SDS011;1003;48.002;7.788;2022-10-16T09:17:36;3.13;;;1.97;;
2001;SDS011;1003;48.002;7.788;2022-10-16T09:20:18;1.90;;;1.70;;
2001;SDS011;1003;48.002;7.788;2022-10-16T09:22:56;4.00;;;2.10;;
2001;SDS011;1003;48.002;7.788;2022-10-16T09:25:40;2.80;;;2.00;;
2001;SDS011;1003;48.002;7.788;2022-10-16T09:28:10;2.97;;;1.90;;
2001;SDS011;1003;48.002;7.788;2022-10-16T09:30:39;3.23;;;2.20;;
2001;SDS011;1003;48.002;7.788;2022-10-16T09:33:07;5.53;;;2.37;;
2001;SDS011;1003;48.002;7.788;2022-10-16T09:35:38;3.00;;;1.80;;
2001;SDS011;1003;48.002;7.788;2022-10-16T09:38:09;3.93;;;1.97;;
2001;SDS011;1003;48.002;7.788;2022-10-16T09:40:48;1.90;;;1.80;;
2001;SDS011;1003;48.002;7.788;2022-10-16T09:43:19;2.10;;;1.67;;
2001;SDS011;1003;48.002;7.788;2022-10-16T09:46:00;5.63;;;2.03;;
2001;SDS011;1003;48.002;7.788;2022-10-16T09:48:31;4.37;;;1.83;;
2001;SDS011;1003;48.002;7.788;2022-10-16T09:51:05;2.03;;;1.60;;
2001;SDS011;1003;48.002;7.788;2022-10-16T09:53:45;2.00;;;1.40;;
2001;SDS011;1003;48.002;7.788;2022-10-16T09:56:20;3.47;;;1.60;;
2001;SDS011;1003;48.002;7.788;2022-10-16T09:58:50;2.77;;;1.50;;
2001;SDS011;1003;48.002;7.788;2022-10-16T10:01:21;1.63;;;1.27;;
2001;SDS011;1003;48.002;7.788;2022-10-16T10:03:55;1.87;;;1.40;;
2001;SDS011;1003;48.002;7.788;2022-10-16T10:06:27;1.40;;;1.10;;
2001;SDS011;1003;48.002;7.788;2022-10-16T10:08:58;4.47;;;1.37;;
2001;SDS011;1003;48.002;7.788;2022-10-16T10:11:41;1.40;;;1.30;;
2001;SDS011;1003;48.002;7.788;2022-10-16T10:14:19;1.43;;;1.27;;
2001;SDS011;1003;48.002;7.788;2022-10-16T10:17:07;2.33;;;1.13;;
2001;SDS011;1003;48.002;7.788;2022-10-16T10:19:40;3.53;;;1.50;;
2001;SDS011;1003;48.002;7.788;2022-10-16T10:22:16;2.00;;;1.20;;
2001;SDS011;1003;48.002;7.788;2022-10-16T10:24:56;2.83;;;1.30;;
2001;SDS011;1003;48.002;7.788;2022-10-16T10:27:36;1.43;;;1.20;;
2001;SDS011;1003;48.002;7.788;2022-10-16T10:30:18;2.80;;;1.20;;
2001;SDS011;1003;48.002;7.788;2022-10-16T10:32:57;3.80;;;1.20;;
2001;SDS011;1003;48.002;7.788;2022-10-16T10:35:43;0.90;;;0.90;;
2001;SDS011;1003;48.002;7.788;2022-10-16T10:38:23;1.20;;;1.10;;
2001;SDS011;1003;48.002;7.788;2022-10-16T10:41:20;1.20;;;1.10;;
2001;SDS011;1003;48.002;7.788;2022-10-16T10:44:46;3.13;;;0.90;;
2001;SDS011;1003;48.002;7.788;2022-10-16T10:47:34;1.57;;;1.17;;
2001;SDS011;1003;48.002;7.788;2022-10-16T10:50:18;1.00;;;1.00;;
2001;SDS011;1003;48.002;7.788;2022-10-16T10:52:56;2.00;;;1.20;;
2001;SDS011;1003;48.002;7.788;2022-10-16T10:55:36;1.30;;;1.10;;
2001;SDS011;1003;48.002;7.788;2022-10-16T10:58:19;1.47;;;0.90;;
2001;SDS011;1003;48.002;7.788;2022-10-16T11:01:13;1.00;;;1.00;;
2001;SDS011;1003;48.002;7.788;2022-10-16T11:03:46;1.57;;;1.20;;
2001;SDS011;1003;48.002;7.788;2022-10-16T11:06:45;1.70;;;1.00;;
2001;SDS011;1003;48.002;7.788;2022-10-16T11:09:19;1.30;;;1.00;;
2001;SDS011;1003;48.002;7.788;2022-10-16T11:11:52;1.13;;;1.13;;
2001;SDS011;1003;48.002;7.788;2022-10-16T11:14:26;1.73;;;1.00;;
2001;SDS011;1003;48.002;7.788;2022-10-16T11:17:04;1.97;;;0.90;;
2001;SDS011;1003;48.002;7.788;2022-10-16T11:19:39;3.57;;;1.27;;
2001;SDS011;1003;48.002;7.788;2022-10-16T11:22:17;1.17;;;1.07;;
2001;SDS011;1003;48.002;7.788;2022-10-16T11:24:51;1.00;;;0.90;;
2001;SDS011;1003;48.002;7.788;2022-10-16T11:27:29;1.20;;;1.10;;
2001;SDS011;1003;48.002;7.788;2022-10-16T11:30:05;1.23;;;1.17;;
2001;SDS011;1003;48.002;7.788;2022-10-16T11:32:44;1.00;;;1.00;;
2001;SDS011;1003;48.002;7.788;2022-10-16T11:35:29;3.10;;;1.10;;
2001;SDS011;1003;48.002;7.788;2022-10-16T11:38:10;0.93;;;0.93;;
2001;SDS011;1003;48.002;7.788;2022-10-16T11:40:50;1.27;;;0.83;;
2001;SDS011;1003;48.002;7.788;2022-10-16T11:43:24;1.10;;;1.10;;
2001;SDS011;1003;48.002;7.788;2022-10-16T11:45:58;3.27;;;1.20;;
2001;SDS011;1003;48.002;7.788;2022-10-16T11:48:39;1.53;;;1.10;;
2001;SDS011;1003;48.002;7.788;2022-10-16T11:51:16;1.10;;;1.00;;
2001;SDS011;1003;48.002;7.788;2022-10-16T11:53:58;1.17;;;1.00;;
2001;SDS011;1003;48.002;7.788;2022-10-16T11:56:36;1.60;;;1.07;;
2001;SDS011;1003;48.002;7.788;2022-10-16T11:59:08;1.53;;;1.30;;
2001;SDS011;1003;48.002;7.788;2022-10-16T12:01:48;3.83;;;1.20;;
2001;SDS011;1003;48.002;7.788;2022-10-16T12:04:25;1.87;;;1.10;;
2001;SDS011;1003;48.002;7.788;2022-10-16T12:07:02;1.67;;;0.97;;
2001;SDS011;1003;48.002;7.788;2022-10-16T12:09:36;2.03;;;1.17;;
2001;SDS011;1003;48.002;7.788;2022-10-16T12:14:59;1.53;;;1.20;;
2001;SDS011;1003;48.002;7.788;2022-10-16T12:17:34;1.70;;;1.40;;
2001;SDS011;1003;48.002;7.788;2022-10-16T12:20:19;1.67;;;1.20;;
2001;SDS011;1003;48.002;7.788;2022-10-16T12:22:56;1.43;;;1.30;;
2001;SDS011;1003;48.002;7.788;2022-10-16T12:25:28;1.50;;;1.10;;
2001;SDS011;1003;48.002;7.788;2022-10-16T12:28:02;2.30;;;1.30;;
2001;SDS011;1003;48.002;7.788;2022-10-16T12:30:32;1.23;;;1.17;;
2001;SDS011;1003;48.002;7.788;2022-10-16T12:33:03;1.33;;;1.23;;
2001;SDS011;1003;48.002;7.788;2022-10-16T12:35:45;1.23;;;1.20;;
2001;SDS011;1003;48.002;7.788;2022-10-16T12:38:15;1.20;;;1.10;;
2001;SDS011;1003;48.002;7.788;2022-10-16T12:40:47;1.93;;;1.33;;
2001;SDS011;1003;48.002;7.788;2022-10-16T12:43:26;1.33;;;1.23;;
2001;SDS011;1003;48.002;7.788;2022-10-16T12:46:04;1.60;;;1.30;;
2001;SDS011;1003;48.002;7.788;2022-10-16T12:48:48;1.70;;;1.50;;
2001;SDS011;1003;48.002;7.788;2022-10-16T12:51:23;2.70;;;1.20;;
2001;SDS011;1003;48.002;7.788;2022-10-16T12:54:00;1.47;;;1.37;;
2001;SDS011;1003;48.002;7.788;2022-10-16T12:56:35;2.17;;;1.40;;
2001;SDS011;1003;48.002;7.788;2022-10-16T12:59:16;2.53;;;1.20;;
2001;SDS011;1003;48.002;7.788;2022-10-16T13:05:43;1.67;;;1.20;;
2001;SDS011;1003;48.002;7.788;2022-10-16T13:08:33;1.97;;;1.13;;
2001;SDS011;1003;48.002;7.788;2022-10-16T13:11:19;1.83;;;1.40;;
2001;SDS011;1003;48.002;7.788;2022-10-16T13:14:03;2.13;;;1.47;;
2001;SDS011;1003;48.002;7.788;2022-10-16T13:16:55;3.00;;;1.83;;
2001;SDS011;1003;48.002;7.788;2022-10-16T13:19:38;2.50;;;1.33;;
2001;SDS011;1003;48.002;7.788;2022-10-16T13:22:18;1.37;;;1.27;;
2001;SDS011;1003;48.002;7.788;2022-10-16T13:24:58;0.90;;;0.90;;
2001;SDS011;1003;48.002;7.788;2022-10-16T13:27:45;1.50;;;1.40;;
2001;SDS011;1003;48.002;7.788;2022-10-16T13:30:23;1.53;;;1.43;;
2001;SDS011;1003;48.002;7.788;2022-10-16T13:32:55;1.60;;;1.50;;
2001;SDS011;1003;48.002;7.788;2022-10-16T13:35:29;1.40;;;1.30;;
2001;SDS011;1003;48.002;7.788;2022-10-16T13:38:05;1.90;;;1.40;;
2001;SDS011;1003;48.002;7.788;2022-10-16T13:40:47;1.20;;;1.20;;
2001;SDS011;1003;48.002;7.788;2022-10-16T13:43:21;1.50;;;1.40;;
2001;SDS011;1003;48.002;7.788;2022-10-16T13:45:59;1.13;;;1.13;;
2001;SDS011;1003;48.002;7.788;2022-10-16T13:48:29;1.40;;;1.20;;
2001;SDS011;1003;48.002;7.788;2022-10-16T13:50:59;1.43;;;1.13;;
2001;SDS011;1003;48.002;7.788;2022-10-16T13:53:32;1.83;;;1.50;;
2001;SDS011;1003;48.002;7.788;2022-10-16T13:56:02;1.30;;;1.20;;
2001;SDS011;1003;48.002;7.788;2022-10-16T13:58:32;1.40;;;1.30;;
2001;SDS011;1003;48.002;7.788;2022-10-16T14:01:01;1.70;;;1.30;;
2001;SDS011;1003;48.002;7.788;2022-10-16T14:03:41;2.10;;;1.33;;
2001;SDS011;1003;48.002;7.788;2022-10-16T14:06:11;1.53;;;1.20;;
2001;SDS011;1003;48.002;7.788;2022-10-16T14:08:42;2.80;;;1.47;;
2001;SDS011;1003;48.002;7.788;2022-10-16T14:11:19;2.50;;;1.40;;
2001;SDS011;1003;48.002;7.788;2022-10-16T14:13:48;1.30;;;1.17;;
2001;SDS011;1003;48.002;7.788;2022-10-16T14:16:19;2.50;;;1.20;;
2001;SDS011;1003;48.002;7.788;2022-10-16T14:18:55;1.50;;;1.40;;
2001;SDS011;1003;48.002;7.788;2022-10-16T14:21:28;2.37;;;1.37;;
2001;SDS011;1003;48.002;7.788;2022-10-16T14:23:57;1.90;;;1.27;;
2001;SDS011;1003;48.002;7.788;2022-10-16T14:26:40;3.27;;;1.40;;
2001;SDS011;1003;48.002;7.788;2022-10-16T14:29:10;1.77;;;1.30;;
2001;SDS011;1003;48.002;7.788;2022-10-16T14:31:41;1.47;;;1.07;;
2001;SDS011;1003;48.002;7.788;2022-10-16T14:34:28;1.60;;;1.50;;
2001;SDS011;1003;48.002;7.788;2022-10-16T14:36:58;1.50;;;1.40;;
2001;SDS011;1003;48.002;7.788;2022-10-16T14:39:32;3.10;;;1.70;;
2001;SDS011;1003;48.002;7.788;2022-10-16T14:42:03;1.33;;;1.10;;
2001;SDS011;1003;48.002;7.788;2022-10-16T14:44:31;2.23;;;1.50;;
2001;SDS011;1003;48.002;7.788;2022-10-16T14:47:07;2.20;;;1.10;;
2001;SDS011;1003;48.002;7.788;2022-10-16T14:49:41;2.53;;;1.30;;
2001;SDS011;1003;48.002;7.788;2022-10-16T14:52:09;1.53;;;1.43;;
2001;SDS011;1003;48.002;7.788;2022-10-16T14:54:38;3.07;;;1.37;;
2001;SDS011;1003;48.002;7.788;2022-10-16T14:57:05;1.87;;;1.37;;
2001;SDS011;1003;48.002;7.788;2022-10-16T14:59:44;1.60;;;1.13;;
2001;SDS011;1003;48.002;7.788;2022-10-16T15:02:18;1.47;;;1.23;;
2001;SDS011;1003;48.002;7.788;2022-10-16T15:04:53;2.13;;;1.47;;
2001;SDS011;1003;48.002;7.788;2022-10-16T15:07:20;2.53;;;1.70;;
2001;SDS011;1003;48.002;7.788;2022-10-16T15:09:48;2.77;;;1.70;;
2001;SDS011;1003;48.002;7.788;2022-10-16T15:12:16;1.60;;;1.50;;
2001;SDS011;1003;48.002;7.788;2022-10-16T15:14:43;1.60;;;1.07;;
2001;SDS011;1003;48.002;7.788;2022-10-16T15:17:11;2.43;;;2.23;;
2001;SDS011;1003;48.002;7.788;2022-10-16T15:19:39;1.80;;;1.70;;
2001;SDS011;1003;48.002;7.788;2022-10-16T15:22:08;1.17;;;1.13;;
2001;SDS011;1003;48.002;7.788;2022-10-16T15:24:37;2.67;;;1.30;;
2001;SDS011;1003;48.002;7.788;2022-10-16T15:27:04;2.23;;;1.60;;
2001;SDS011;1003;48.002;7.788;2022-10-16T15:29:31;1.80;;;1.30;;
2001;SDS011;1003;48.002;7.788;2022-10-16T15:31:58;1.77;;;1.30;;
2001;SDS011;1003;48.002;7.788;2022-10-16T15:34:25;1.50;;;1.30;;
2001;SDS011;1003;48.002;7.788;2022-10-16T15:36:54;1.30;;;1.30;;
2001;SDS011;1003;48.002;7.788;2022-10-16T15:39:22;3.90;;;1.97;;
2001;SDS011;1003;48.002;7.788;2022-10-16T15:41:50;2.63;;;1.90;;
2001;SDS011;1003;48.002;7.788;2022-10-16T15:44:18;2.57;;;1.50;;
2001;SDS011;1003;48.002;7.788;2022-10-16T15:46:47;1.80;;;1.70;;
2001;SDS011;1003;48.002;7.788;2022-10-16T15:49:14;1.30;;;1.20;;
2001;SDS011;1003;48.002;7.788;2022-10-16T15:51:42;1.50;;;1.40;;
2001;SDS011;1003;48.002;7.788;2022-10-16T15:54:10;1.30;;;1.20;;
2001;SDS011;1003;48.002;7.788;2022-10-16T15:56:37;1.20;;;1.10;;